page 5615 of 1016794 registered users

eBook PostsUsers

  1. 0ticketoffice8 registered @ 2013-01-25 09:50:53, last login @ 2013-01-25 09:50:53
  2. 0dewplant8 registered @ 2013-01-25 09:53:19, last login @ 2013-01-25 09:53:19
  3. 0grill17bongo registered @ 2013-01-25 09:53:47, last login @ 2013-01-25 09:53:47
  4. 0george75plot registered @ 2013-01-25 09:55:08, last login @ 2013-01-25 09:55:08
  5. 0gmhusain registered @ 2013-01-25 09:55:15, last login @ 2013-01-25 09:56:18
  6. 0matchoven3 registered @ 2013-01-25 09:55:22, last login @ 2013-01-25 09:55:22
  7. 0grade2tights registered @ 2013-01-25 09:55:36, last login @ 2013-01-25 09:55:36
  8. 0elungaggedo registered @ 2013-01-25 09:56:04, last login @ 2013-01-25 09:56:04
  9. 0oval8neon registered @ 2013-01-25 09:56:46, last login @ 2013-01-25 09:56:46
  10. 0olive9side registered @ 2013-01-25 09:56:53, last login @ 2013-01-25 09:56:53
  11. 0attacksusan47 registered @ 2013-01-25 09:57:40, last login @ 2013-01-25 09:57:40
  12. 0samfarmer registered @ 2013-01-25 09:57:44, last login @ 2013-01-25 09:57:44
  13. 0africa3crayon registered @ 2013-01-25 09:58:22, last login @ 2013-01-25 09:58:22
  14. 0quietletter1 registered @ 2013-01-25 09:59:02, last login @ 2013-01-25 09:59:02
  15. 0mole43bonsai registered @ 2013-01-25 09:59:02, last login @ 2013-01-25 09:59:02
  16. 0jeans86router registered @ 2013-01-25 09:59:09, last login @ 2013-01-25 09:59:09
  17. 0officeparent5 registered @ 2013-01-25 09:59:46, last login @ 2013-01-25 09:59:46
  18. 0cellotrick6 registered @ 2013-01-25 10:00:01, last login @ 2013-01-25 10:00:01
  19. 0fandrawer8 registered @ 2013-01-25 10:02:15, last login @ 2013-01-25 10:02:15
  20. 0key0hemp registered @ 2013-01-25 10:02:27, last login @ 2013-01-25 10:02:27
  21. 0headmath4 registered @ 2013-01-25 10:02:34, last login @ 2013-01-25 10:02:34
  22. 0peruwool76 registered @ 2013-01-25 10:02:53, last login @ 2013-01-25 10:02:53
  23. 0edge9linda registered @ 2013-01-25 10:04:08, last login @ 2013-01-25 10:04:08
  24. 0thing7bagel registered @ 2013-01-25 10:05:07, last login @ 2013-01-25 10:05:07
  25. 0use4coat registered @ 2013-01-25 10:05:38, last login @ 2013-01-25 10:05:38
  26. 0bobcat45otter registered @ 2013-01-25 10:05:44, last login @ 2013-01-25 10:05:44
  27. 0scenehumor3 registered @ 2013-01-25 10:05:46, last login @ 2013-01-25 10:17:09
  28. 0aartjohnson511 registered @ 2013-01-25 10:06:09, last login @ 2013-01-25 10:06:09
  29. 0mintneedle10 registered @ 2013-01-25 10:07:00, last login @ 2013-01-25 10:07:00
  30. 0clerksquare54 registered @ 2013-01-25 10:07:32, last login @ 2013-01-25 10:07:32
  31. 0franceatm55 registered @ 2013-01-25 10:07:39, last login @ 2013-01-25 10:07:39
  32. 0tripblade6 registered @ 2013-01-25 10:08:51, last login @ 2013-01-25 10:08:51
  33. 0oboe2glove registered @ 2013-01-25 10:11:02, last login @ 2013-01-25 10:27:46
  34. 0trade8slave registered @ 2013-01-25 10:11:28, last login @ 2013-01-25 10:11:28
  35. 0filetimer6 registered @ 2013-01-25 10:11:29, last login @ 2013-01-25 10:17:27
  36. 0drill55cinema registered @ 2013-01-25 10:12:37, last login @ 2013-01-25 10:12:37
  37. 0shakeblue11 registered @ 2013-01-25 10:13:01, last login @ 2013-01-25 10:34:52
  38. 0lockturkey0 registered @ 2013-01-25 10:13:12, last login @ 2013-01-25 10:13:12
  39. 0tvparty1 registered @ 2013-01-25 10:13:16, last login @ 2013-01-25 10:45:30
  40. 0marythat78 registered @ 2013-01-25 10:13:23, last login @ 2013-01-25 10:38:54
  41. 0danielcannon90 registered @ 2013-01-25 10:13:38, last login @ 2013-01-25 10:13:38
  42. 0belldew2 registered @ 2013-01-25 10:14:09, last login @ 2013-01-25 10:14:09
  43. 0parentwire24 registered @ 2013-01-25 10:14:24, last login @ 2013-01-25 10:46:51
  44. 0mosquetrowel88 registered @ 2013-01-25 10:14:44, last login @ 2013-01-25 10:14:44
  45. 0tripscreen8 registered @ 2013-01-25 10:14:57, last login @ 2013-01-25 10:14:57
  46. 0selfdragon25 registered @ 2013-01-25 10:15:29, last login @ 2013-01-25 10:28:44
  47. 0paint0house registered @ 2013-01-25 10:16:23, last login @ 2013-01-25 10:16:23
  48. 0brake4james registered @ 2013-01-25 10:16:30, last login @ 2013-01-25 10:16:30
  49. 0listwind4 registered @ 2013-01-25 10:16:30, last login @ 2013-01-25 10:16:30
  50. 0pantyshoe4 registered @ 2013-01-25 10:17:08, last login @ 2013-01-25 10:17:08
  51. 0bread7lamb registered @ 2013-01-25 10:17:52, last login @ 2013-01-25 10:17:52
  52. 0operasalmon36 registered @ 2013-01-25 10:18:04, last login @ 2013-01-25 10:18:04
  53. 0profit1pike registered @ 2013-01-25 10:18:07, last login @ 2013-01-25 10:18:07
  54. 0gradeburn4 registered @ 2013-01-25 10:18:41, last login @ 2013-01-25 10:18:41
  55. 0musicturkey3 registered @ 2013-01-25 10:19:32, last login @ 2013-01-25 10:19:32
  56. 0africasweets0 registered @ 2013-01-25 10:19:35, last login @ 2013-01-25 10:19:35
  57. 0yudaping registered @ 2013-01-25 10:20:24, last login @ 2013-01-25 10:20:24
  58. 0march46gear registered @ 2013-01-25 10:20:25, last login @ 2013-01-25 10:20:25
  59. 0farmertruck8 registered @ 2013-01-25 10:20:55, last login @ 2013-01-25 10:20:55
  60. 0epoxycrab8 registered @ 2013-01-25 10:21:19, last login @ 2013-01-25 10:39:41
  61. 0cloud9tent registered @ 2013-01-25 10:22:12, last login @ 2013-01-25 10:42:36
  62. 0money31friday registered @ 2013-01-25 10:23:22, last login @ 2013-01-25 10:23:22
  63. 0twine54black registered @ 2013-01-25 10:24:32, last login @ 2013-01-25 10:24:32
  64. 0angle0wine registered @ 2013-01-25 10:26:43, last login @ 2013-01-25 10:26:43
  65. 0irisseed1 registered @ 2013-01-25 10:28:46, last login @ 2013-01-25 10:28:46
  66. 0chestcolt1 registered @ 2013-01-25 10:29:02, last login @ 2013-01-25 10:29:02
  67. 0wordplane71 registered @ 2013-01-25 10:29:15, last login @ 2013-01-25 10:39:31
  68. 0pantysense99 registered @ 2013-01-25 10:30:56, last login @ 2013-01-25 10:30:56
  69. 0coat77linda registered @ 2013-01-25 10:31:03, last login @ 2013-01-25 10:31:03
  70. 0coneaugust9 registered @ 2013-01-25 10:31:30, last login @ 2013-01-25 10:31:30
  71. 0emery1ramie registered @ 2013-01-25 10:32:41, last login @ 2013-01-25 10:32:41
  72. 0vein9boat registered @ 2013-01-25 10:32:43, last login @ 2013-01-25 10:32:43
  73. 0middledead2 registered @ 2013-01-25 10:32:48, last login @ 2013-01-25 10:51:33
  74. 0Hmmm registered @ 2013-01-25 10:34:40, last login @ 2013-01-25 10:34:40
  75. 0scent1finger registered @ 2013-01-25 10:35:59, last login @ 2013-01-25 10:35:59
  76. 0tankdry6 registered @ 2013-01-25 10:36:07, last login @ 2013-01-25 10:47:08
  77. 0ali_hussnain4322 registered @ 2013-01-25 10:36:10, last login @ 2013-01-25 10:36:10
  78. 0housesearch22 registered @ 2013-01-25 10:36:20, last login @ 2013-01-25 10:36:20
  79. 0ticketsauce2 registered @ 2013-01-25 10:36:32, last login @ 2013-01-25 10:36:32
  80. 0spotmanx25 registered @ 2013-01-25 10:36:41, last login @ 2013-01-25 10:36:41
  81. 0active9italy registered @ 2013-01-25 10:37:18, last login @ 2013-01-25 10:37:18
  82. 0loan4white registered @ 2013-01-25 10:38:03, last login @ 2013-01-25 10:50:24
  83. 0yellowhyena5 registered @ 2013-01-25 10:38:35, last login @ 2013-01-25 10:38:35
  84. 0airbuskorean72 registered @ 2013-01-25 10:40:16, last login @ 2013-01-25 10:40:16
  85. 0hammerlegal15 registered @ 2013-01-25 10:40:46, last login @ 2013-01-25 10:40:46
  86. 0rubtights20 registered @ 2013-01-25 10:41:31, last login @ 2013-01-25 10:41:31
  87. 0ideabrow00 registered @ 2013-01-25 10:41:39, last login @ 2013-01-25 10:41:39
  88. 0brazil4motion registered @ 2013-01-25 10:43:01, last login @ 2013-01-25 10:43:01
  89. 0wine3table registered @ 2013-01-25 10:43:09, last login @ 2013-01-25 10:43:09
  90. 0self4page registered @ 2013-01-25 10:43:29, last login @ 2013-01-25 10:43:29
  91. 0tempo46garage registered @ 2013-01-25 10:45:03, last login @ 2013-01-25 10:45:03
  92. 0batdrill2 registered @ 2013-01-25 10:45:17, last login @ 2013-01-25 10:45:17
  93. 0ibuffet0reason registered @ 2013-01-25 10:47:13, last login @ 2013-01-25 10:47:13
  94. 0cirrus54drug registered @ 2013-01-25 10:47:14, last login @ 2013-01-25 10:47:14
  95. 0yamclam4 registered @ 2013-01-25 10:47:42, last login @ 2013-01-25 10:47:42
  96. 0wildskulls registered @ 2013-01-25 10:47:45, last login @ 2013-01-25 10:50:51
  97. 0chin45budget registered @ 2013-01-25 10:49:34, last login @ 2013-01-25 10:49:34
  98. 0starhen3 registered @ 2013-01-25 10:49:57, last login @ 2013-01-25 10:49:57
  99. 0orange57fired registered @ 2013-01-25 10:50:40, last login @ 2013-01-25 10:50:40
  100. 0tankdonkey1 registered @ 2013-01-25 10:51:21, last login @ 2013-01-25 10:51:21
  101. 0eel04ant registered @ 2013-01-25 10:51:35, last login @ 2013-01-25 10:51:35

More...

[5625] [5624] [5623] [5622] [5621] [5620] [5619] [5618] [5617] [5616] [5615] [5614] [5613] [5612] [5611] [5610] [5609] [5608] [5607] [5606] ...[1]
Back to Top